Time;durP1;ratioP1;P1;durP2;ratioP2;P2;SDS_P1;SDS_P2;PMS_P1;PMS_P2;Temp;Humidity;BMP_temperature;BMP_pressure;BME280_temperature;BME280_humidity;BME280_pressure;Samples;Min_cycle;Max_cycle;Signal;HPM_P1;HPM_P2
2023/05/06 00:02:36;;;;;;;;;;;;;;;13.30;55.96;99266.32;135586;1280;22491;-66
2023/05/06 00:05:39;;;;;;;;;;;;;;;13.38;55.62;99274.80;131372;1280;5368488;-64
2023/05/06 00:08:42;;;;;;;;;;;;;;;13.44;55.45;99278.77;135219;1280;22525;-64
2023/05/06 00:11:46;;;;;;;;;;;;;;;13.46;55.67;99280.27;135637;1280;22501;-66
2023/05/06 00:14:49;;;;;;;;;;;;;;;13.41;55.71;99273.02;135605;1266;22510;-63
2023/05/06 00:17:55;;;;;;;;;;;;;;;13.35;56.18;99271.47;135641;1262;22504;-66
2023/05/06 00:20:57;;;;;;;;;;;;;;;13.29;56.47;99270.79;135535;1280;22496;-64
2023/05/06 00:24:05;;;;;;;;;;;;;;;13.13;56.80;99275.34;135620;1280;22511;-64
2023/05/06 00:27:08;;;;;;;;;;;;;;;13.04;56.79;99280.26;135492;1280;22512;-64
2023/05/06 00:30:15;;;;;;;;;;;;;;;12.95;57.08;99281.20;135625;1280;22499;-67
2023/05/06 00:33:18;;;;;;;;;;;;;;;12.86;57.46;99278.96;135609;1280;25306;-67
2023/05/06 00:36:30;;;;;;;;;;;;;;;12.89;57.44;99273.19;135349;1280;22495;-64
2023/05/06 00:39:33;;;;;;;;;;;;;;;12.92;57.50;99270.86;135615;1280;22639;-64
2023/05/06 00:42:37;;;;;;;;;;;;;;;12.93;57.91;99262.73;135594;1280;22504;-65
2023/05/06 00:45:41;;;;;;;;;;;;;;;12.81;57.57;99256.30;135616;1280;22551;-64
2023/05/06 00:48:44;;;;;;;;;;;;;;;12.60;58.69;99257.95;135600;1280;25306;-64
2023/05/06 00:51:48;;;;;;;;;;;;;;;12.52;58.91;99255.98;135583;1280;22509;-64
2023/05/06 00:54:51;;;;;;;;;;;;;;;12.52;58.80;99256.67;135565;1280;22531;-64
2023/05/06 00:57:57;;;;;;;;;;;;;;;12.47;58.83;99252.94;135605;1280;22608;-64
2023/05/06 01:01:00;;;;;;;;;;;;;;;12.43;58.53;99244.60;135525;1280;22530;-64
2023/05/06 01:04:03;;;;;;;;;;;;;;;12.43;59.30;99236.54;135581;1280;22517;-63
2023/05/06 01:07:06;;;;;;;;;;;;;;;12.37;59.69;99225.33;135515;1280;22531;-64
2023/05/06 01:10:10;;;;;;;;;;;;;;;12.35;59.73;99222.98;135454;1280;22577;-64
2023/05/06 01:13:13;;;;;;;;;;;;;;;12.38;59.84;99223.70;135616;1280;22505;-63
2023/05/06 01:16:16;;;;;;;;;;;;;;;12.37;60.40;99225.34;135667;1280;22522;-64
2023/05/06 01:19:23;;;;;;;;;;;;;;;12.46;60.17;99228.29;135637;1280;22714;-64
2023/05/06 01:22:27;;;;;;;;;;;;;;;12.55;59.66;99229.66;135596;1280;22504;-66
2023/05/06 01:25:32;;;;;;;;;;;;;;;12.61;58.83;99234.34;135614;1280;22612;-65
2023/05/06 01:28:35;;;;;;;;;;;;;;;12.69;58.59;99236.67;135588;1280;22512;-66
2023/05/06 01:31:39;;;;;;;;;;;;;;;12.73;58.26;99238.57;135588;1280;22518;-64
2023/05/06 01:34:45;;;;;;;;;;;;;;;12.66;58.76;99243.73;135607;1280;22501;-66
2023/05/06 01:37:51;;;;;;;;;;;;;;;12.67;58.60;99245.73;135580;1280;22531;-64
2023/05/06 01:40:55;;;;;;;;;;;;;;;12.64;58.70;99243.11;135549;1280;22504;-65
2023/05/06 01:43:59;;;;;;;;;;;;;;;12.57;58.84;99241.64;135589;1280;22504;-65
2023/05/06 01:47:02;;;;;;;;;;;;;;;12.55;59.37;99243.17;135536;1280;22507;-64
2023/05/06 01:50:05;;;;;;;;;;;;;;;12.51;59.17;99242.88;135615;1280;22523;-63
2023/05/06 01:53:09;;;;;;;;;;;;;;;12.52;59.58;99240.73;135577;1280;22492;-66
2023/05/06 01:56:12;;;;;;;;;;;;;;;12.49;59.42;99237.77;135621;1280;22613;-66
2023/05/06 01:59:15;;;;;;;;;;;;;;;12.51;59.19;99233.07;135630;1280;22526;-69
2023/05/06 02:02:18;;;;;;;;;;;;;;;12.42;59.18;99226.60;135524;1280;22521;-64
2023/05/06 02:05:21;;;;;;;;;;;;;;;12.33;59.70;99222.41;135642;1280;22608;-66
2023/05/06 02:08:24;;;;;;;;;;;;;;;12.31;59.88;99226.42;135624;1279;22528;-65
2023/05/06 02:11:28;;;;;;;;;;;;;;;12.28;60.44;99223.06;135574;1279;22612;-67
2023/05/06 02:14:31;;;;;;;;;;;;;;;12.25;60.66;99219.61;135594;1279;22506;-70
2023/05/06 02:17:35;;;;;;;;;;;;;;;12.21;60.68;99218.78;135583;1279;22616;-65
2023/05/06 02:20:39;;;;;;;;;;;;;;;12.21;61.29;99217.17;135614;1279;24201;-67
2023/05/06 02:23:42;;;;;;;;;;;;;;;12.23;60.73;99220.58;135629;1279;24235;-65
2023/05/06 02:26:48;;;;;;;;;;;;;;;12.31;60.35;99219.90;135625;1279;22513;-67
2023/05/06 02:29:55;;;;;;;;;;;;;;;12.38;60.50;99222.31;135604;1279;24260;-67
2023/05/06 02:36:36;;;;;;;;;;;;;;;12.56;60.56;99209.25;135460;1280;22501;-68
2023/05/06 02:39:43;;;;;;;;;;;;;;;12.70;59.67;99211.20;135662;1280;22508;-67
2023/05/06 02:42:46;;;;;;;;;;;;;;;12.75;60.05;99211.05;135642;1280;22528;-65
2023/05/06 02:45:49;;;;;;;;;;;;;;;12.76;59.91;99206.95;135494;1280;22515;-67
2023/05/06 02:48:52;;;;;;;;;;;;;;;12.78;59.99;99206.27;135662;1280;22504;-65
2023/05/06 02:51:55;;;;;;;;;;;;;;;12.83;60.05;99205.64;135608;1267;22544;-69
2023/05/06 02:54:58;;;;;;;;;;;;;;;12.83;59.79;99206.11;135340;1280;25373;-64
2023/05/06 02:58:01;;;;;;;;;;;;;;;12.86;59.73;99205.77;135620;1280;22526;-66
2023/05/06 03:01:11;;;;;;;;;;;;;;;12.90;59.80;99208.82;135640;1279;22672;-64
2023/05/06 03:04:15;;;;;;;;;;;;;;;12.91;60.04;99208.11;135616;1279;22545;-67
2023/05/06 03:07:18;;;;;;;;;;;;;;;12.91;59.72;99202.79;135595;1280;22628;-66
2023/05/06 03:10:24;;;;;;;;;;;;;;;12.93;59.53;99203.94;135441;1280;25330;-67
2023/05/06 03:13:27;;;;;;;;;;;;;;;12.87;60.27;99202.19;135641;1280;25080;-71
2023/05/06 03:16:30;;;;;;;;;;;;;;;13.03;59.29;99203.13;135476;1262;22515;-68
2023/05/06 03:19:33;;;;;;;;;;;;;;;13.00;59.74;99202.21;135648;1280;22645;-68
2023/05/06 03:22:36;;;;;;;;;;;;;;;13.01;59.51;99201.27;135641;1280;22495;-68
2023/05/06 03:25:38;;;;;;;;;;;;;;;13.04;59.23;99199.15;135629;1280;22530;-67
2023/05/06 03:28:41;;;;;;;;;;;;;;;13.13;58.93;99197.53;135640;1263;22511;-68
2023/05/06 03:31:45;;;;;;;;;;;;;;;13.19;58.73;99199.09;135627;1263;24201;-66
2023/05/06 03:34:48;;;;;;;;;;;;;;;13.22;58.48;99201.33;135483;1278;22513;-68
2023/05/06 03:37:51;;;;;;;;;;;;;;;13.20;58.70;99200.20;135337;1281;22566;-64
2023/05/06 03:40:54;;;;;;;;;;;;;;;13.16;59.08;99201.52;135311;1281;22523;-65
2023/05/06 03:43:57;;;;;;;;;;;;;;;13.18;58.76;99201.91;135291;1281;22532;-68
2023/05/06 03:47:01;;;;;;;;;;;;;;;13.22;58.55;99209.59;135376;1281;22528;-65
2023/05/06 03:50:04;;;;;;;;;;;;;;;13.35;58.19;99211.58;135221;1272;25842;-65
2023/05/06 03:53:07;;;;;;;;;;;;;;;13.32;58.14;99212.64;135357;1281;22516;-66
2023/05/06 03:56:10;;;;;;;;;;;;;;;13.27;58.29;99215.95;135304;1281;22516;-66
2023/05/06 03:59:13;;;;;;;;;;;;;;;13.33;58.31;99219.60;135306;1281;22503;-66
2023/05/06 04:02:15;;;;;;;;;;;;;;;13.40;58.04;99215.49;135322;1281;22528;-67
2023/05/06 04:05:19;;;;;;;;;;;;;;;13.46;57.93;99204.73;135340;1281;22527;-67
2023/05/06 04:08:22;;;;;;;;;;;;;;;13.53;57.76;99203.54;135311;1272;24339;-67
2023/05/06 04:11:25;;;;;;;;;;;;;;;13.53;57.78;99194.41;135323;1281;22517;-68
2023/05/06 04:14:28;;;;;;;;;;;;;;;13.63;57.49;99196.17;135058;1281;22528;-66
2023/05/06 04:17:31;;;;;;;;;;;;;;;13.69;57.51;99194.87;135069;1281;22577;-64
2023/05/06 04:20:34;;;;;;;;;;;;;;;13.79;57.34;99195.25;135101;1281;22558;-64
2023/05/06 04:23:37;;;;;;;;;;;;;;;13.94;57.22;99189.52;135120;1268;22670;-67
2023/05/06 04:26:40;;;;;;;;;;;;;;;14.01;57.09;99189.19;135102;1281;22520;-64
2023/05/06 04:29:43;;;;;;;;;;;;;;;14.09;56.96;99193.60;135307;1281;22580;-65
2023/05/06 04:32:46;;;;;;;;;;;;;;;14.27;56.68;99192.84;135361;1281;22546;-66
2023/05/06 04:35:49;;;;;;;;;;;;;;;14.61;55.84;99191.49;135345;1281;22514;-69
2023/05/06 04:38:53;;;;;;;;;;;;;;;14.82;54.99;99185.11;135362;1281;22536;-67
2023/05/06 04:41:56;;;;;;;;;;;;;;;14.93;54.56;99188.55;135386;1281;22505;-69
2023/05/06 04:44:59;;;;;;;;;;;;;;;14.77;54.63;99192.13;135304;1281;22670;-69
2023/05/06 04:48:02;;;;;;;;;;;;;;;14.62;55.32;99196.20;135214;1281;22512;-64
2023/05/06 04:51:05;;;;;;;;;;;;;;;14.55;55.13;99197.02;135290;1281;22567;-69
2023/05/06 04:54:08;;;;;;;;;;;;;;;14.65;55.16;99195.11;135313;1281;22514;-66
2023/05/06 04:57:11;;;;;;;;;;;;;;;14.72;54.50;99192.34;135059;1281;22571;-64
2023/05/06 05:00:15;;;;;;;;;;;;;;;14.68;54.73;99194.35;135056;1261;22712;-63
2023/05/06 05:03:18;;;;;;;;;;;;;;;14.70;54.81;99198.83;135406;1281;22509;-64
2023/05/06 05:06:20;;;;;;;;;;;;;;;14.74;54.51;99197.51;134980;1281;25156;-64
2023/05/06 05:09:23;;;;;;;;;;;;;;;14.76;54.38;99200.13;135100;1281;25379;-67
2023/05/06 05:12:26;;;;;;;;;;;;;;;14.85;54.67;99201.60;135275;1281;22521;-68
2023/05/06 05:15:30;;;;;;;;;;;;;;;14.93;54.10;99202.27;135385;1281;22509;-69
2023/05/06 05:18:33;;;;;;;;;;;;;;;15.06;54.04;99199.88;135363;1281;22497;-65
2023/05/06 05:21:35;;;;;;;;;;;;;;;15.19;53.74;99206.85;135376;1281;22515;-66
2023/05/06 05:24:38;;;;;;;;;;;;;;;15.37;53.46;99204.31;135236;1281;22500;-71
2023/05/06 05:27:41;;;;;;;;;;;;;;;15.43;53.15;99200.30;135366;1281;22552;-65
2023/05/06 05:30:48;;;;;;;;;;;;;;;15.59;52.98;99193.70;135371;1281;24251;-70
2023/05/06 05:33:51;;;;;;;;;;;;;;;15.78;53.22;99188.72;135378;1281;22507;-69
2023/05/06 05:36:55;;;;;;;;;;;;;;;15.90;52.21;99183.73;135295;1281;22538;-68
2023/05/06 05:39:59;;;;;;;;;;;;;;;15.92;51.66;99186.10;135302;1281;22505;-69
2023/05/06 05:43:02;;;;;;;;;;;;;;;15.92;51.76;99182.17;135382;1281;25284;-64
2023/05/06 05:46:05;;;;;;;;;;;;;;;16.01;51.98;99182.41;135323;1281;22532;-68
2023/05/06 05:49:09;;;;;;;;;;;;;;;16.17;52.06;99181.67;135375;1281;25240;-67
2023/05/06 05:52:12;;;;;;;;;;;;;;;16.49;51.82;99179.69;135301;1281;22516;-64
2023/05/06 05:55:16;;;;;;;;;;;;;;;16.63;50.78;99172.23;135383;1281;25337;-68
2023/05/06 05:58:19;;;;;;;;;;;;;;;16.77;50.28;99169.30;135381;1281;22515;-69
2023/05/06 06:01:23;;;;;;;;;;;;;;;16.91;50.18;99171.77;135387;1281;22552;-69
2023/05/06 06:04:26;;;;;;;;;;;;;;;17.08;49.32;99170.88;135379;1281;22496;-67
2023/05/06 06:07:30;;;;;;;;;;;;;;;17.30;49.40;99169.62;135314;1281;22508;-66
2023/05/06 06:10:33;;;;;;;;;;;;;;;17.68;48.95;99164.60;135409;1281;22504;-69
2023/05/06 06:13:37;;;;;;;;;;;;;;;17.89;48.10;99155.45;135266;1281;22516;-68
2023/05/06 06:16:39;;;;;;;;;;;;;;;17.93;47.99;99151.61;135383;1281;22512;-70
2023/05/06 06:19:42;;;;;;;;;;;;;;;17.83;48.51;99152.07;135317;1273;22591;-64
2023/05/06 06:26:11;;;;;;;;;;;;;;;17.76;47.99;99139.90;135321;1281;22527;-66
2023/05/06 06:29:14;;;;;;;;;;;;;;;17.81;47.46;99133.42;135339;1281;22637;-67
2023/05/06 06:32:18;;;;;;;;;;;;;;;17.89;47.49;99132.85;135395;1281;22965;-68
2023/05/06 06:35:22;;;;;;;;;;;;;;;17.99;47.50;99125.60;135376;1281;22516;-67
2023/05/06 06:38:25;;;;;;;;;;;;;;;18.20;46.94;99124.64;135412;1281;25214;-68
2023/05/06 06:41:29;;;;;;;;;;;;;;;18.24;47.40;99122.71;135356;1281;22517;-66
2023/05/06 06:44:32;;;;;;;;;;;;;;;18.23;46.59;99125.14;135392;1281;22509;-68
2023/05/06 06:47:36;;;;;;;;;;;;;;;18.27;47.00;99124.36;135338;1281;22514;-67
2023/05/06 06:50:39;;;;;;;;;;;;;;;18.43;46.47;99126.02;135292;1281;22527;-69
2023/05/06 06:53:42;;;;;;;;;;;;;;;18.42;45.71;99120.92;135361;1281;22507;-66
2023/05/06 06:56:46;;;;;;;;;;;;;;;18.38;45.84;99113.31;135128;1281;22539;-66
2023/05/06 06:59:51;;;;;;;;;;;;;;;18.33;45.49;99113.46;135117;1281;22561;-65
2023/05/06 07:02:55;;;;;;;;;;;;;;;18.36;45.92;99115.65;135263;1281;22511;-65
2023/05/06 07:05:58;;;;;;;;;;;;;;;18.46;45.52;99114.92;135367;1281;22632;-69
2023/05/06 07:09:02;;;;;;;;;;;;;;;18.34;45.49;99112.08;135395;1281;22498;-67
2023/05/06 07:12:05;;;;;;;;;;;;;;;18.30;45.26;99105.00;135371;1281;22507;-67
2023/05/06 07:15:09;;;;;;;;;;;;;;;18.24;45.30;99105.77;135373;1281;22508;-70
2023/05/06 07:18:13;;;;;;;;;;;;;;;18.28;45.57;99106.45;135376;1281;22504;-67
2023/05/06 07:21:16;;;;;;;;;;;;;;;18.45;45.44;99105.15;135314;1281;22538;-67
2023/05/06 07:24:20;;;;;;;;;;;;;;;18.50;45.67;99108.92;135378;1281;22508;-69
2023/05/06 07:27:26;;;;;;;;;;;;;;;18.57;44.86;99107.30;135311;1281;22506;-67
2023/05/06 07:30:29;;;;;;;;;;;;;;;18.50;44.72;99105.20;135354;1281;25365;-69
2023/05/06 07:33:33;;;;;;;;;;;;;;;18.54;45.05;99099.72;135359;1281;22555;-67
2023/05/06 07:36:45;;;;;;;;;;;;;;;18.64;44.93;99094.88;135358;1281;22534;-67
2023/05/06 07:39:48;;;;;;;;;;;;;;;18.86;45.18;99093.15;135358;1281;22529;-68
2023/05/06 07:42:51;;;;;;;;;;;;;;;19.16;44.91;99092.74;135345;1281;22516;-68
2023/05/06 07:46:01;;;;;;;;;;;;;;;19.46;44.31;99090.66;135379;1281;22566;-66
2023/05/06 07:49:04;;;;;;;;;;;;;;;19.82;44.26;99090.78;135372;1281;22517;-66
2023/05/06 07:52:06;;;;;;;;;;;;;;;19.97;43.10;99084.41;135320;1263;23362;-65
2023/05/06 07:55:10;;;;;;;;;;;;;;;20.13;43.33;99089.27;135331;1281;22523;-66
2023/05/06 07:58:13;;;;;;;;;;;;;;;20.30;43.01;99085.20;135366;1281;22511;-66
2023/05/06 08:01:16;;;;;;;;;;;;;;;20.44;42.80;99084.84;135258;1281;22509;-66
2023/05/06 08:04:18;;;;;;;;;;;;;;;20.48;42.69;99086.12;135389;1281;22620;-67
2023/05/06 08:07:22;;;;;;;;;;;;;;;20.51;42.62;99085.27;135361;1281;22536;-66
2023/05/06 08:10:25;;;;;;;;;;;;;;;20.43;41.35;99085.33;135359;1264;22607;-68
2023/05/06 08:13:29;;;;;;;;;;;;;;;20.19;41.91;99085.38;135337;1281;22494;-66
2023/05/06 08:16:32;;;;;;;;;;;;;;;19.98;42.57;99087.37;135347;1281;22506;-65
2023/05/06 08:19:35;;;;;;;;;;;;;;;19.94;42.05;99093.10;135242;1281;24259;-67
2023/05/06 08:22:41;;;;;;;;;;;;;;;19.86;42.44;99093.46;135314;1262;22532;-67
2023/05/06 08:25:45;;;;;;;;;;;;;;;19.74;42.59;99090.00;135386;1281;22507;-66
2023/05/06 08:28:49;;;;;;;;;;;;;;;19.68;42.78;99091.05;135065;1261;24049;-66
2023/05/06 08:31:51;;;;;;;;;;;;;;;19.63;42.63;99090.33;135094;1281;22554;-67
2023/05/06 08:34:55;;;;;;;;;;;;;;;19.72;42.83;99091.92;135213;1281;22501;-67
2023/05/06 08:37:57;;;;;;;;;;;;;;;19.92;42.94;99089.52;135234;1281;22529;-67
2023/05/06 08:41:02;;;;;;;;;;;;;;;20.08;42.58;99086.22;135255;1281;22513;-67
2023/05/06 08:44:05;;;;;;;;;;;;;;;20.24;42.20;99079.88;135359;1281;24205;-67
2023/05/06 08:47:08;;;;;;;;;;;;;;;20.29;41.63;99073.04;135353;1281;22511;-67
2023/05/06 08:50:11;;;;;;;;;;;;;;;20.20;41.91;99068.91;135349;1281;22519;-67
2023/05/06 08:53:15;;;;;;;;;;;;;;;20.26;42.47;99064.62;135363;1264;22920;-66
2023/05/06 08:56:18;;;;;;;;;;;;;;;20.32;42.23;99061.38;135350;1281;23445;-66
2023/05/06 08:59:21;;;;;;;;;;;;;;;20.43;42.43;99061.56;135333;1263;22540;-66
2023/05/06 09:02:24;;;;;;;;;;;;;;;20.49;41.79;99054.02;135353;1264;22503;-66
2023/05/06 09:05:28;;;;;;;;;;;;;;;20.35;41.69;99049.33;135280;1281;23276;-66
2023/05/06 09:08:31;;;;;;;;;;;;;;;20.22;41.70;99046.90;135375;1281;22514;-67
2023/05/06 09:11:34;;;;;;;;;;;;;;;20.16;42.13;99041.64;135374;1261;22521;-66
2023/05/06 09:14:37;;;;;;;;;;;;;;;20.23;42.32;99034.33;135350;1261;22518;-67
2023/05/06 09:17:40;;;;;;;;;;;;;;;20.18;42.20;99029.34;135389;1281;22516;-66
2023/05/06 09:20:43;;;;;;;;;;;;;;;20.16;42.18;99023.87;135375;1281;22510;-64
2023/05/06 09:23:46;;;;;;;;;;;;;;;20.39;42.18;99026.73;135326;1281;22547;-66
2023/05/06 09:26:49;;;;;;;;;;;;;;;20.55;41.75;99017.52;135450;1274;23397;-67
2023/05/06 09:29:54;;;;;;;;;;;;;;;20.52;41.49;99014.30;135504;1280;22525;-66
2023/05/06 09:32:57;;;;;;;;;;;;;;;20.58;41.27;99014.05;135481;1280;22525;-67
2023/05/06 09:36:00;;;;;;;;;;;;;;;20.71;41.75;99012.42;135513;1280;25236;-66
2023/05/06 09:39:03;;;;;;;;;;;;;;;20.71;40.96;99008.37;135463;1280;23867;-66
2023/05/06 09:42:06;;;;;;;;;;;;;;;20.58;41.45;99005.88;135494;1280;22508;-66
2023/05/06 09:45:09;;;;;;;;;;;;;;;20.44;41.32;99004.80;135431;1280;22522;-68
2023/05/06 09:48:12;;;;;;;;;;;;;;;20.16;41.88;98999.01;135461;1262;22633;-68
2023/05/06 09:51:16;;;;;;;;;;;;;;;20.04;42.43;98992.22;135484;1262;23538;-67
2023/05/06 09:54:22;;;;;;;;;;;;;;;19.71;42.55;98984.15;135524;1280;24042;-67
2023/05/06 09:57:25;;;;;;;;;;;;;;;19.41;43.20;98984.17;135450;1269;22519;-67
2023/05/06 10:00:28;;;;;;;;;;;;;;;19.32;43.49;98988.02;135498;1280;22534;-67
2023/05/06 10:03:35;;;;;;;;;;;;;;;19.33;43.71;98985.64;135461;1280;24251;-67
2023/05/06 10:06:38;;;;;;;;;;;;;;;19.42;43.70;98985.71;135469;1280;22510;-66
2023/05/06 10:09:41;;;;;;;;;;;;;;;19.44;44.01;98982.63;135475;1280;22532;-68
2023/05/06 10:12:44;;;;;;;;;;;;;;;19.44;43.72;98978.95;135472;1280;22526;-66
2023/05/06 10:15:48;;;;;;;;;;;;;;;19.41;43.84;98978.15;135268;1280;24379;-65
2023/05/06 10:18:50;;;;;;;;;;;;;;;19.32;43.62;98971.15;135534;1280;22544;-68
2023/05/06 10:21:53;;;;;;;;;;;;;;;19.38;43.92;98971.38;135495;1280;22517;-66
2023/05/06 10:24:56;;;;;;;;;;;;;;;19.31;44.06;98966.91;135511;1280;22512;-66
2023/05/06 10:28:00;;;;;;;;;;;;;;;19.25;44.40;98965.82;135500;1280;22514;-66
2023/05/06 10:31:03;;;;;;;;;;;;;;;19.17;44.48;98960.38;135438;1280;22505;-66
2023/05/06 10:34:05;;;;;;;;;;;;;;;19.17;44.45;98954.57;135498;1280;25462;-67
2023/05/06 10:37:08;;;;;;;;;;;;;;;19.18;45.13;98943.28;135480;1280;25464;-65
2023/05/06 10:40:12;;;;;;;;;;;;;;;19.21;45.93;98930.74;135514;1280;22515;-67
2023/05/06 10:43:15;;;;;;;;;;;;;;;19.31;45.59;98921.45;135517;1280;22504;-66
2023/05/06 10:46:19;;;;;;;;;;;;;;;19.43;45.34;98923.56;135435;1280;22643;-67
2023/05/06 10:49:23;;;;;;;;;;;;;;;19.68;45.21;98923.48;135502;1280;25044;-68
2023/05/06 10:52:26;;;;;;;;;;;;;;;19.92;44.95;98910.16;135486;1280;22520;-66
2023/05/06 10:55:30;;;;;;;;;;;;;;;20.17;44.87;98908.34;135565;1280;25214;-67
2023/05/06 10:58:34;;;;;;;;;;;;;;;20.38;43.29;98899.20;135451;1280;22521;-68
2023/05/06 11:01:37;;;;;;;;;;;;;;;20.57;43.17;98892.48;135528;1280;23724;-67
2023/05/06 11:04:41;;;;;;;;;;;;;;;20.57;43.17;98896.17;135557;1280;22509;-69
2023/05/06 11:07:45;;;;;;;;;;;;;;;20.51;43.07;98893.46;135464;1280;22521;-67
2023/05/06 11:10:49;;;;;;;;;;;;;;;20.61;43.41;98900.63;135502;1280;22589;-68
2023/05/06 11:13:53;;;;;;;;;;;;;;;20.48;42.85;98892.84;135455;1280;22550;-67
2023/05/06 11:16:57;;;;;;;;;;;;;;;20.39;43.32;98892.65;135532;1280;22614;-67
2023/05/06 11:20:02;;;;;;;;;;;;;;;20.43;43.80;98898.37;135566;1280;22567;-66
2023/05/06 11:23:05;;;;;;;;;;;;;;;20.53;43.81;98896.05;135467;1280;22525;-69
2023/05/06 11:26:08;;;;;;;;;;;;;;;20.41;43.40;98887.14;135547;1280;22507;-69
2023/05/06 11:29:12;;;;;;;;;;;;;;;20.24;43.87;98894.02;135560;1280;22511;-69
2023/05/06 11:32:15;;;;;;;;;;;;;;;19.99;44.37;98914.21;135539;1280;22498;-66
2023/05/06 11:35:21;;;;;;;;;;;;;;;19.86;44.60;98937.34;135509;1280;22527;-69
2023/05/06 11:38:24;;;;;;;;;;;;;;;19.75;44.84;98949.23;135486;1262;22516;-69
2023/05/06 11:41:27;;;;;;;;;;;;;;;19.74;45.53;98952.52;135543;1280;22490;-69
2023/05/06 11:44:31;;;;;;;;;;;;;;;19.49;46.63;98954.17;135506;1280;22512;-69
2023/05/06 11:47:35;;;;;;;;;;;;;;;19.43;46.63;98969.66;135542;1280;22497;-70
2023/05/06 11:50:39;;;;;;;;;;;;;;;19.19;47.59;98980.45;135553;1280;22514;-69
2023/05/06 11:53:42;;;;;;;;;;;;;;;18.96;48.06;98982.55;135421;1280;22592;-71
2023/05/06 11:56:46;;;;;;;;;;;;;;;18.88;48.65;98988.40;135515;1280;22500;-69
2023/05/06 11:59:53;;;;;;;;;;;;;;;18.84;50.11;98997.78;135572;1280;22621;-69
2023/05/06 12:02:57;;;;;;;;;;;;;;;18.82;51.23;98999.75;135561;1280;22487;-67
2023/05/06 12:06:03;;;;;;;;;;;;;;;18.79;52.45;98998.30;131248;1280;5389322;-71
2023/05/06 12:09:06;;;;;;;;;;;;;;;18.66;53.41;98991.63;135490;1280;22507;-70
2023/05/06 12:12:10;;;;;;;;;;;;;;;18.59;53.81;98985.04;135546;1280;24357;-65
2023/05/06 12:15:13;;;;;;;;;;;;;;;18.39;56.14;98977.98;135516;1280;22502;-69
2023/05/06 12:18:15;;;;;;;;;;;;;;;18.16;56.91;98977.41;135549;1280;22541;-66
2023/05/06 12:21:19;;;;;;;;;;;;;;;18.00;57.97;98971.80;135520;1280;22508;-69
2023/05/06 12:24:21;;;;;;;;;;;;;;;17.90;60.23;98968.09;135553;1279;22645;-68
2023/05/06 12:27:25;;;;;;;;;;;;;;;17.70;62.55;98961.81;135541;1279;22543;-69
2023/05/06 12:30:27;;;;;;;;;;;;;;;17.57;63.65;98956.62;135528;1279;22711;-68
2023/05/06 12:33:30;;;;;;;;;;;;;;;17.53;64.01;98954.10;135487;1279;22641;-69
2023/05/06 12:36:33;;;;;;;;;;;;;;;17.43;64.61;98950.04;135535;1279;22582;-70
2023/05/06 12:39:36;;;;;;;;;;;;;;;17.35;66.19;98943.02;135551;1279;24381;-68
2023/05/06 12:42:39;;;;;;;;;;;;;;;17.35;65.67;98943.82;135512;1279;25093;-68
2023/05/06 12:45:44;;;;;;;;;;;;;;;17.44;66.54;98935.95;135570;1279;22532;-70
2023/05/06 12:48:48;;;;;;;;;;;;;;;17.13;69.47;98922.98;135575;1279;22616;-68
2023/05/06 12:51:52;;;;;;;;;;;;;;;16.96;69.92;98921.59;135505;1279;22517;-67
2023/05/06 12:54:55;;;;;;;;;;;;;;;16.91;68.47;98915.67;135517;1279;24391;-69
2023/05/06 12:57:58;;;;;;;;;;;;;;;16.77;71.15;98908.52;135591;1279;22507;-66
2023/05/06 13:01:02;;;;;;;;;;;;;;;16.64;70.51;98905.52;135542;1279;22510;-66
2023/05/06 13:04:06;;;;;;;;;;;;;;;16.63;71.24;98900.01;135594;1279;22510;-68
2023/05/06 13:07:09;;;;;;;;;;;;;;;16.62;70.94;98893.58;135423;1279;22516;-68
2023/05/06 13:10:13;;;;;;;;;;;;;;;16.55;72.40;98895.06;135569;1279;22798;-68
2023/05/06 13:13:16;;;;;;;;;;;;;;;16.51;71.72;98907.90;135538;1279;22507;-68
2023/05/06 13:16:20;;;;;;;;;;;;;;;16.49;72.25;98909.84;135527;1279;25478;-66
2023/05/06 13:19:26;;;;;;;;;;;;;;;16.60;72.17;98900.25;135586;1279;22505;-71
2023/05/06 13:22:29;;;;;;;;;;;;;;;16.63;72.74;98883.88;135584;1279;22525;-67
2023/05/06 13:25:32;;;;;;;;;;;;;;;16.59;73.71;98881.07;135517;1279;22540;-70
2023/05/06 13:28:35;;;;;;;;;;;;;;;16.53;74.04;98880.16;135545;1279;22514;-70
2023/05/06 13:31:39;;;;;;;;;;;;;;;16.47;75.71;98879.33;135564;1279;22520;-68
2023/05/06 13:34:41;;;;;;;;;;;;;;;16.45;74.55;98886.73;135583;1279;22511;-70
2023/05/06 13:37:44;;;;;;;;;;;;;;;16.55;73.58;98890.30;135517;1279;22557;-71
2023/05/06 13:40:47;;;;;;;;;;;;;;;16.63;74.40;98866.80;135568;1279;22518;-67
2023/05/06 13:43:50;;;;;;;;;;;;;;;16.53;76.08;98857.91;135585;1279;23861;-70
2023/05/06 13:46:53;;;;;;;;;;;;;;;16.59;76.32;98852.64;135551;1262;22960;-69
2023/05/06 13:49:57;;;;;;;;;;;;;;;16.60;75.57;98866.38;135559;1280;22515;-70
2023/05/06 13:52:59;;;;;;;;;;;;;;;16.57;74.54;98854.25;135482;1280;25207;-68
2023/05/06 13:56:02;;;;;;;;;;;;;;;16.42;75.92;98845.64;135512;1280;22514;-70
2023/05/06 13:59:22;;;;;;;;;;;;;;;16.53;74.95;98842.04;135577;1259;22507;-70
2023/05/06 14:02:26;;;;;;;;;;;;;;;16.45;75.04;98844.70;135581;1280;22500;-70
2023/05/06 14:05:28;;;;;;;;;;;;;;;16.33;77.05;98838.98;135546;1280;25342;-66
2023/05/06 14:08:31;;;;;;;;;;;;;;;16.21;77.34;98838.90;135586;1280;22510;-68
2023/05/06 14:11:34;;;;;;;;;;;;;;;16.14;77.44;98844.16;135534;1280;24225;-66
2023/05/06 14:14:37;;;;;;;;;;;;;;;16.14;77.11;98842.20;135502;1280;22578;-71
2023/05/06 14:17:41;;;;;;;;;;;;;;;15.97;79.12;98836.53;135583;1262;22660;-71
2023/05/06 14:20:44;;;;;;;;;;;;;;;15.88;77.91;98839.35;135566;1279;22515;-68
2023/05/06 14:23:47;;;;;;;;;;;;;;;15.92;77.70;98838.88;135608;1262;22579;-71
2023/05/06 14:26:50;;;;;;;;;;;;;;;15.92;77.97;98842.17;135566;1280;22501;-67
2023/05/06 14:29:53;;;;;;;;;;;;;;;15.82;78.62;98840.79;135556;1280;22518;-69
2023/05/06 14:32:56;;;;;;;;;;;;;;;15.76;79.57;98842.25;135562;1280;25464;-69
2023/05/06 14:36:02;;;;;;;;;;;;;;;15.70;79.13;98847.02;135413;1262;23000;-67
2023/05/06 14:39:04;;;;;;;;;;;;;;;15.77;77.92;98856.11;135354;1280;22546;-72
2023/05/06 14:42:07;;;;;;;;;;;;;;;15.77;78.08;98858.77;135585;1280;22600;-67
2023/05/06 14:45:10;;;;;;;;;;;;;;;15.73;78.01;98855.73;135575;1269;22510;-69
2023/05/06 14:48:14;;;;;;;;;;;;;;;15.64;79.27;98848.34;135486;1280;22513;-70
2023/05/06 14:51:17;;;;;;;;;;;;;;;15.47;79.09;98850.27;135603;1280;22510;-68
2023/05/06 14:54:20;;;;;;;;;;;;;;;15.36;79.76;98853.59;135589;1280;22514;-67
2023/05/06 14:57:23;;;;;;;;;;;;;;;15.27;79.63;98868.58;135558;1280;22498;-68
2023/05/06 15:00:26;;;;;;;;;;;;;;;15.24;78.97;98883.77;135653;1280;22576;-72
2023/05/06 15:03:29;;;;;;;;;;;;;;;15.27;79.42;98890.98;135579;1280;22528;-68
2023/05/06 15:06:39;;;;;;;;;;;;;;;15.20;78.72;98903.85;135618;1280;22613;-68
2023/05/06 15:09:44;;;;;;;;;;;;;;;15.13;79.38;98915.15;135405;1280;22540;-68
2023/05/06 15:12:48;;;;;;;;;;;;;;;15.35;77.05;98914.83;135539;1280;24219;-68
2023/05/06 15:15:51;;;;;;;;;;;;;;;15.32;77.83;98914.73;135552;1280;22507;-70
2023/05/06 15:18:54;;;;;;;;;;;;;;;15.29;77.60;98922.18;135656;1280;22500;-70
2023/05/06 15:21:57;;;;;;;;;;;;;;;15.28;77.43;98916.08;135623;1280;22520;-73
2023/05/06 15:25:01;;;;;;;;;;;;;;;15.27;77.45;98922.02;135596;1280;25231;-68
2023/05/06 15:28:05;;;;;;;;;;;;;;;15.15;77.43;98921.80;135603;1280;22534;-70
2023/05/06 15:31:08;;;;;;;;;;;;;;;15.04;77.93;98918.30;135582;1280;22507;-70
2023/05/06 15:34:11;;;;;;;;;;;;;;;15.03;77.75;98913.63;135571;1280;22490;-67
2023/05/06 15:37:18;;;;;;;;;;;;;;;15.02;77.56;98904.89;135618;1280;22504;-65
2023/05/06 15:40:24;;;;;;;;;;;;;;;15.05;77.69;98909.92;135633;1280;22500;-66
2023/05/06 15:43:27;;;;;;;;;;;;;;;15.06;78.08;98908.76;135642;1280;22500;-67
2023/05/06 15:46:29;;;;;;;;;;;;;;;15.02;77.18;98909.61;135624;1262;22640;-66
2023/05/06 15:49:32;;;;;;;;;;;;;;;15.03;77.82;98904.30;135617;1262;22595;-69